createdAt,value
2018-03-18T00:00:11.537Z,0.00
2018-03-18T00:01:11.492Z,0.00
2018-03-18T00:02:11.458Z,0.00
2018-03-18T00:03:11.420Z,0.00
2018-03-18T00:04:11.446Z,0.00
2018-03-18T00:05:11.355Z,0.00
2018-03-18T00:06:11.324Z,0.00
2018-03-18T00:07:11.290Z,0.00
2018-03-18T00:08:11.247Z,0.00
2018-03-18T00:09:11.250Z,0.00
2018-03-18T00:10:11.210Z,0.00
2018-03-18T00:11:11.144Z,0.00
2018-03-18T00:12:11.123Z,0.00
2018-03-18T00:13:11.123Z,0.00
2018-03-18T00:14:11.084Z,0.00
2018-03-18T00:15:10.999Z,0.00
2018-03-18T00:16:10.965Z,0.00
2018-03-18T00:17:10.935Z,0.00
2018-03-18T00:18:10.892Z,0.00
2018-03-18T00:19:10.899Z,0.00
2018-03-18T00:20:10.822Z,0.00
2018-03-18T00:21:10.788Z,0.00
2018-03-18T00:22:10.770Z,0.00
2018-03-18T00:23:10.723Z,0.00
2018-03-18T00:24:10.727Z,0.00
2018-03-18T00:25:10.643Z,0.00
2018-03-18T00:26:10.653Z,0.00
2018-03-18T00:27:10.574Z,0.00
2018-03-18T00:28:10.537Z,0.00
2018-03-18T00:29:10.560Z,0.00
2018-03-18T00:30:10.469Z,0.00
2018-03-18T00:31:10.436Z,0.00
2018-03-18T00:32:10.399Z,0.00
2018-03-18T00:33:10.361Z,0.00
2018-03-18T00:34:10.369Z,0.00
2018-03-18T00:35:10.296Z,0.00
2018-03-18T00:36:10.256Z,0.00
2018-03-18T00:37:10.219Z,0.00
2018-03-18T00:38:10.188Z,0.00
2018-03-18T00:39:10.202Z,0.00
2018-03-18T00:40:10.118Z,0.00
2018-03-18T00:41:10.077Z,0.00
2018-03-18T00:42:10.048Z,0.00
2018-03-18T00:43:10.004Z,0.00
2018-03-18T00:44:10.013Z,0.00
2018-03-18T00:45:09.943Z,0.00
2018-03-18T00:46:09.956Z,0.00
2018-03-18T00:47:09.930Z,0.00
2018-03-18T00:48:09.833Z,0.00
2018-03-18T00:49:09.803Z,0.00
2018-03-18T00:50:09.759Z,0.00
2018-03-18T00:51:09.791Z,0.00
2018-03-18T00:52:09.698Z,0.00
2018-03-18T00:53:10.492Z,0.00
2018-03-18T00:54:09.630Z,0.00
2018-03-18T00:55:09.594Z,0.00
2018-03-18T00:56:09.620Z,0.00
2018-03-18T00:57:09.512Z,0.00
2018-03-18T00:58:09.478Z,0.00
2018-03-18T00:59:09.441Z,0.00
2018-03-18T01:00:09.406Z,0.00
2018-03-18T01:01:09.413Z,0.00
2018-03-18T01:02:09.337Z,0.00
2018-03-18T01:03:09.348Z,0.00
2018-03-18T01:04:09.269Z,0.00
2018-03-18T01:05:09.228Z,0.00
2018-03-18T01:06:09.188Z,0.00
2018-03-18T01:07:09.197Z,0.00
2018-03-18T01:08:09.123Z,0.00
2018-03-18T01:09:09.141Z,0.00
2018-03-18T01:10:09.052Z,0.00
2018-03-18T01:11:09.016Z,0.00
2018-03-18T01:12:08.977Z,0.00
2018-03-18T01:13:08.942Z,0.00
2018-03-18T01:14:08.955Z,0.00
2018-03-18T01:15:08.871Z,0.00
2018-03-18T01:16:08.836Z,0.00
2018-03-18T01:17:09.048Z,0.00
2018-03-18T01:18:08.762Z,0.00
2018-03-18T01:19:08.733Z,0.00
2018-03-18T01:20:08.741Z,0.00
2018-03-18T01:21:08.662Z,0.00
2018-03-18T01:22:08.620Z,0.00
2018-03-18T01:23:08.643Z,0.00
2018-03-18T01:24:08.558Z,0.00
2018-03-18T01:25:08.517Z,0.00
2018-03-18T01:26:08.492Z,0.00
2018-03-18T01:27:08.449Z,0.00
2018-03-18T01:28:08.448Z,0.00
2018-03-18T01:29:08.373Z,0.00
2018-03-18T01:30:08.341Z,0.00
2018-03-18T01:31:08.349Z,0.00
2018-03-18T01:32:08.323Z,0.00
2018-03-18T01:33:08.237Z,0.00
2018-03-18T01:34:08.193Z,0.00
2018-03-18T01:35:08.170Z,0.00
2018-03-18T01:36:08.126Z,0.00
2018-03-18T01:37:08.593Z,0.00
2018-03-18T01:38:08.057Z,0.00
2018-03-18T01:39:08.036Z,0.00
2018-03-18T01:40:07.986Z,0.00
2018-03-18T01:41:07.961Z,0.00
2018-03-18T01:42:07.985Z,0.00
2018-03-18T01:43:07.926Z,0.00
2018-03-18T01:44:07.838Z,0.00
2018-03-18T01:45:07.807Z,0.00
2018-03-18T01:46:07.789Z,0.00
2018-03-18T01:47:07.790Z,0.00
2018-03-18T01:48:07.707Z,0.00
2018-03-18T01:49:07.667Z,0.00
2018-03-18T01:50:07.630Z,0.00
2018-03-18T01:51:07.601Z,0.00
2018-03-18T01:52:07.601Z,0.00
2018-03-18T01:53:07.533Z,0.00
2018-03-18T01:54:07.526Z,0.00
2018-03-18T01:55:07.462Z,0.00
2018-03-18T01:56:07.432Z,0.00
2018-03-18T01:57:07.423Z,0.00
2018-03-18T01:58:07.343Z,0.00
2018-03-18T01:59:07.305Z,0.00
2018-03-18T02:00:07.268Z,0.00
2018-03-18T02:01:07.244Z,0.00
2018-03-18T02:02:07.243Z,0.00
2018-03-18T02:03:07.166Z,0.00
2018-03-18T02:04:07.134Z,0.00
2018-03-18T02:05:07.146Z,0.00
2018-03-18T02:06:07.056Z,0.00
2018-03-18T02:07:07.019Z,0.00
2018-03-18T02:08:06.983Z,0.00
2018-03-18T02:09:07.011Z,0.00
2018-03-18T02:10:06.951Z,0.00
2018-03-18T02:11:06.904Z,0.00
2018-03-18T02:12:06.842Z,0.00
2018-03-18T02:13:07.049Z,0.00
2018-03-18T02:14:06.815Z,0.00
2018-03-18T02:15:06.731Z,0.00
2018-03-18T02:16:06.702Z,0.00
2018-03-18T02:17:06.675Z,0.00
2018-03-18T02:18:06.625Z,0.00
2018-03-18T02:19:06.634Z,0.00
2018-03-18T02:20:06.596Z,0.00
2018-03-18T02:21:06.518Z,0.00
2018-03-18T02:22:06.484Z,0.00
2018-03-18T02:23:06.484Z,0.00
2018-03-18T02:24:06.475Z,0.00
2018-03-18T02:25:06.990Z,0.00
2018-03-18T02:26:06.347Z,0.00
2018-03-18T02:27:06.320Z,0.00
2018-03-18T02:28:06.272Z,0.00
2018-03-18T02:29:06.278Z,0.00
2018-03-18T02:30:06.197Z,0.00
2018-03-18T02:31:06.163Z,0.00
2018-03-18T02:32:06.125Z,0.00
2018-03-18T02:33:06.130Z,0.00
2018-03-18T02:34:06.052Z,0.00
2018-03-18T02:35:06.016Z,0.00
2018-03-18T02:36:06.026Z,0.00
2018-03-18T02:37:05.950Z,0.00
2018-03-18T02:38:05.909Z,0.00
2018-03-18T02:39:05.868Z,0.00
2018-03-18T02:40:05.840Z,0.00
2018-03-18T02:41:05.852Z,0.00
2018-03-18T02:42:05.789Z,0.00
2018-03-18T02:43:05.748Z,0.00
2018-03-18T02:44:05.700Z,0.00
2018-03-18T02:45:05.659Z,0.00
2018-03-18T02:46:05.673Z,0.00
2018-03-18T02:47:05.586Z,0.00
2018-03-18T02:48:05.561Z,0.00
2018-03-18T02:49:05.526Z,0.00
2018-03-18T02:50:05.488Z,0.00
2018-03-18T02:51:08.216Z,0.00
2018-03-18T02:52:05.999Z,0.00
2018-03-18T02:53:05.368Z,0.00
2018-03-18T02:54:05.336Z,0.00
2018-03-18T02:55:05.347Z,0.00
2018-03-18T02:56:05.269Z,0.00
2018-03-18T02:57:05.269Z,0.00
2018-03-18T02:58:05.193Z,0.00
2018-03-18T02:59:05.191Z,0.00
2018-03-18T03:00:05.121Z,0.00
2018-03-18T03:01:05.081Z,0.00
2018-03-18T03:02:05.042Z,0.00
2018-03-18T03:03:05.054Z,0.00
2018-03-18T03:04:04.973Z,0.00
2018-03-18T03:05:04.947Z,0.00
2018-03-18T03:06:04.935Z,0.00
2018-03-18T03:07:04.862Z,0.00
2018-03-18T03:08:04.871Z,0.00
2018-03-18T03:09:04.790Z,0.00
2018-03-18T03:10:05.491Z,0.00
2018-03-18T03:11:04.748Z,0.00
2018-03-18T03:12:04.684Z,0.00
2018-03-18T03:13:05.053Z,0.00
2018-03-18T03:14:04.608Z,0.00
2018-03-18T03:15:05.490Z,0.00
2018-03-18T03:16:04.583Z,0.00
2018-03-18T03:17:05.497Z,0.00
2018-03-18T03:18:04.471Z,0.00
2018-03-18T03:19:04.472Z,0.00
2018-03-18T03:20:04.992Z,0.00
2018-03-18T03:21:05.059Z,0.00
2018-03-18T03:22:04.422Z,0.00
2018-03-18T03:23:04.699Z,0.00
2018-03-18T03:24:04.249Z,0.00
2018-03-18T03:25:04.216Z,0.00
2018-03-18T03:26:04.218Z,0.00
2018-03-18T03:27:04.993Z,0.00
2018-03-18T03:28:04.104Z,0.00
2018-03-18T03:29:05.850Z,0.00
2018-03-18T03:30:04.079Z,0.00
2018-03-18T03:31:03.994Z,0.00
2018-03-18T03:32:04.493Z,0.00
2018-03-18T03:33:03.925Z,0.00
2018-03-18T03:34:04.496Z,0.00
2018-03-18T03:35:03.897Z,0.00
2018-03-18T03:36:04.495Z,0.00
2018-03-18T03:37:03.778Z,0.00
2018-03-18T03:38:03.788Z,0.00
2018-03-18T03:39:04.048Z,0.00
2018-03-18T03:40:03.736Z,0.00
2018-03-18T03:41:03.674Z,0.00
2018-03-18T03:42:04.488Z,0.00
2018-03-18T03:43:03.600Z,0.00
2018-03-18T03:44:03.528Z,0.00
2018-03-18T03:45:03.550Z,0.00
2018-03-18T03:46:03.513Z,0.00
2018-03-18T03:47:03.994Z,0.00
2018-03-18T03:48:03.379Z,0.00
2018-03-18T03:49:03.346Z,0.00
2018-03-18T03:50:03.993Z,0.00
2018-03-18T03:51:03.315Z,0.00
2018-03-18T03:52:03.236Z,0.00
2018-03-18T03:53:03.997Z,0.00
2018-03-18T03:54:03.209Z,0.00
2018-03-18T03:55:03.130Z,0.00
2018-03-18T03:56:04.165Z,0.00
2018-03-18T03:57:03.053Z,0.00
2018-03-18T03:58:03.061Z,0.00
2018-03-18T03:59:02.985Z,0.00
2018-03-18T04:00:03.494Z,0.00
2018-03-18T04:01:02.910Z,0.00
2018-03-18T04:02:02.873Z,0.00
2018-03-18T04:03:02.892Z,0.00
2018-03-18T04:04:03.041Z,0.00
2018-03-18T04:05:02.770Z,0.00
2018-03-18T04:06:02.731Z,0.00
2018-03-18T04:07:02.694Z,0.00
2018-03-18T04:08:03.046Z,0.00
2018-03-18T04:09:02.619Z,0.00
2018-03-18T04:10:02.585Z,0.00
2018-03-18T04:11:02.553Z,0.00
2018-03-18T04:12:02.512Z,0.00
2018-03-18T04:13:02.565Z,0.00
2018-03-18T04:14:02.481Z,0.00
2018-03-18T04:15:03.000Z,0.00
2018-03-18T04:16:02.368Z,0.00
2018-03-18T04:17:02.332Z,0.00
2018-03-18T04:18:02.353Z,0.00
2018-03-18T04:19:02.993Z,0.00
2018-03-18T04:20:02.221Z,0.00
2018-03-18T04:21:03.013Z,0.00
2018-03-18T04:22:02.149Z,0.00
2018-03-18T04:23:02.158Z,0.00
2018-03-18T04:24:02.075Z,0.00
2018-03-18T04:25:02.084Z,0.00
2018-03-18T04:26:02.548Z,0.00
2018-03-18T04:27:02.006Z,0.00
2018-03-18T04:28:02.045Z,0.00
2018-03-18T04:29:01.898Z,0.00
2018-03-18T04:30:01.859Z,0.00
2018-03-18T04:31:01.827Z,0.00
2018-03-18T04:32:01.790Z,0.00
2018-03-18T04:33:01.785Z,0.00
2018-03-18T04:34:01.719Z,0.00
2018-03-18T04:35:01.680Z,0.00
2018-03-18T04:36:01.646Z,0.00
2018-03-18T04:37:02.047Z,0.00
2018-03-18T04:38:01.569Z,0.00
2018-03-18T04:39:02.050Z,0.00
2018-03-18T04:40:01.496Z,0.00
2018-03-18T04:41:01.885Z,0.00
2018-03-18T04:42:01.426Z,0.00
2018-03-18T04:43:01.386Z,0.00
2018-03-18T04:44:01.351Z,0.00
2018-03-18T04:45:01.360Z,0.00
2018-03-18T04:46:01.281Z,0.00
2018-03-18T04:47:01.997Z,0.00
2018-03-18T04:48:01.206Z,0.00
2018-03-18T04:49:01.332Z,0.00
2018-03-18T04:50:01.552Z,0.00
2018-03-18T04:51:01.102Z,0.00
2018-03-18T04:52:01.109Z,0.00
2018-03-18T04:53:01.031Z,0.00
2018-03-18T04:54:01.494Z,0.00
2018-03-18T04:55:00.994Z,0.00
2018-03-18T04:56:00.914Z,0.00
2018-03-18T04:57:01.495Z,0.00
2018-03-18T04:58:00.847Z,0.00
2018-03-18T04:59:00.809Z,0.00
2018-03-18T05:00:00.809Z,0.00
2018-03-18T05:01:01.490Z,0.00
2018-03-18T05:02:00.699Z,0.00
2018-03-18T05:03:01.042Z,0.00
2018-03-18T05:04:00.667Z,0.00
2018-03-18T05:05:00.633Z,0.00
2018-03-18T05:06:01.490Z,0.00
2018-03-18T05:07:00.547Z,0.00
2018-03-18T05:08:00.477Z,0.00
2018-03-18T05:09:00.541Z,0.00
2018-03-18T05:10:00.435Z,0.00
2018-03-18T05:11:00.373Z,5.63
2018-03-18T05:12:00.989Z,5.63
2018-03-18T05:13:00.301Z,5.63
2018-03-18T05:14:00.739Z,5.63
2018-03-18T05:15:00.228Z,5.63
2018-03-18T05:16:00.994Z,5.63
2018-03-18T05:17:00.150Z,5.63
2018-03-18T05:18:00.157Z,5.63
2018-03-18T05:19:00.083Z,11.25
2018-03-18T05:20:00.543Z,11.25
2018-03-18T05:21:00.010Z,11.25
2018-03-18T05:21:59.970Z,11.25
2018-03-18T05:22:59.942Z,11.25
2018-03-18T05:23:59.942Z,16.88
2018-03-18T05:24:59.869Z,16.88
2018-03-18T05:25:59.823Z,16.88
2018-03-18T05:26:59.790Z,16.88
2018-03-18T05:27:59.802Z,16.88
2018-03-18T05:29:00.110Z,22.50
2018-03-18T05:29:59.681Z,22.50
2018-03-18T05:31:00.396Z,22.50
2018-03-18T05:31:59.605Z,22.50
2018-03-18T05:32:59.569Z,22.50
2018-03-18T05:33:59.539Z,28.13
2018-03-18T05:34:59.538Z,28.13
2018-03-18T05:35:59.457Z,28.13
2018-03-18T05:36:59.427Z,28.13
2018-03-18T05:37:59.388Z,28.13
2018-03-18T05:38:59.388Z,33.75
2018-03-18T05:39:59.315Z,33.75
2018-03-18T05:40:59.278Z,33.75
2018-03-18T05:41:59.246Z,33.75
2018-03-18T05:42:59.213Z,39.38
2018-03-18T05:43:59.213Z,39.38
2018-03-18T05:44:59.179Z,39.38
2018-03-18T05:45:59.093Z,39.38
2018-03-18T05:46:59.058Z,45.00
2018-03-18T05:47:59.063Z,45.00
2018-03-18T05:48:58.992Z,45.00
2018-03-18T05:49:58.951Z,45.00
2018-03-18T05:50:58.914Z,50.63
2018-03-18T05:51:58.922Z,50.63
2018-03-18T05:52:58.844Z,50.63
2018-03-18T05:53:58.835Z,50.63
2018-03-18T05:54:58.775Z,50.63
2018-03-18T05:55:58.780Z,56.25
2018-03-18T05:56:58.717Z,56.25
2018-03-18T05:57:58.662Z,56.25
2018-03-18T05:58:58.668Z,56.25
2018-03-18T05:59:58.584Z,56.25
2018-03-18T06:00:58.598Z,61.88
2018-03-18T06:01:58.520Z,61.88
2018-03-18T06:02:58.486Z,61.88
2018-03-18T06:03:58.443Z,61.88
2018-03-18T06:04:58.404Z,61.88
2018-03-18T06:05:58.429Z,67.50
2018-03-18T06:06:58.332Z,67.50
2018-03-18T06:07:58.302Z,67.50
2018-03-18T06:08:58.262Z,73.13
2018-03-18T06:09:58.226Z,73.13
2018-03-18T06:10:58.225Z,73.13
2018-03-18T06:11:58.153Z,78.75
2018-03-18T06:12:58.117Z,78.75
2018-03-18T06:13:58.988Z,78.75
2018-03-18T06:14:58.083Z,84.38
2018-03-18T06:15:58.012Z,84.38
2018-03-18T06:16:57.969Z,84.38
2018-03-18T06:17:57.939Z,84.38
2018-03-18T06:18:58.490Z,84.38
2018-03-18T06:19:57.908Z,90.00
2018-03-18T06:20:57.837Z,90.00
2018-03-18T06:21:57.792Z,90.00
2018-03-18T06:22:57.806Z,90.00
2018-03-18T06:23:58.525Z,90.00
2018-03-18T06:24:57.690Z,95.63
2018-03-18T06:25:57.787Z,95.63
2018-03-18T06:26:57.639Z,95.63
2018-03-18T06:27:57.576Z,95.63
2018-03-18T06:28:58.494Z,95.63
2018-03-18T06:29:57.510Z,101.25
2018-03-18T06:30:57.516Z,101.25
2018-03-18T06:31:57.427Z,101.25
2018-03-18T06:32:57.420Z,101.25
2018-03-18T06:33:57.359Z,101.25
2018-03-18T06:34:57.319Z,106.88
2018-03-18T06:35:57.553Z,106.88
2018-03-18T06:36:57.310Z,106.88
2018-03-18T06:37:57.213Z,106.88
2018-03-18T06:38:57.180Z,106.88
2018-03-18T06:39:57.138Z,112.50
2018-03-18T06:40:57.139Z,112.50
2018-03-18T06:41:57.178Z,112.50
2018-03-18T06:42:57.036Z,118.13
2018-03-18T06:43:57.005Z,118.13
2018-03-18T06:44:57.107Z,118.13
2018-03-18T06:45:56.930Z,123.75
2018-03-18T06:46:56.898Z,123.75
2018-03-18T06:47:57.493Z,129.38
2018-03-18T06:48:56.815Z,129.38
2018-03-18T06:49:56.834Z,135.00
2018-03-18T06:50:56.796Z,135.00
2018-03-18T06:51:56.704Z,135.00
2018-03-18T06:52:56.692Z,140.63
2018-03-18T06:53:56.636Z,140.63
2018-03-18T06:54:56.612Z,140.63
2018-03-18T06:55:56.626Z,140.63
2018-03-18T06:56:56.559Z,140.63
2018-03-18T06:57:56.504Z,140.63
2018-03-18T06:58:56.463Z,146.25
2018-03-18T06:59:56.422Z,146.25
2018-03-18T07:00:56.426Z,146.25
2018-03-18T07:01:56.351Z,151.88
2018-03-18T07:02:56.319Z,151.88
2018-03-18T07:03:56.303Z,151.88
2018-03-18T07:04:56.249Z,151.88
2018-03-18T07:05:56.295Z,157.50
2018-03-18T07:06:56.176Z,163.13
2018-03-18T07:07:56.150Z,163.13
2018-03-18T07:08:56.186Z,168.75
2018-03-18T07:09:56.115Z,168.75
2018-03-18T07:10:56.103Z,174.38
2018-03-18T07:11:56.068Z,180.00
2018-03-18T07:12:55.987Z,180.00
2018-03-18T07:13:55.946Z,185.63
2018-03-18T07:14:55.926Z,185.63
2018-03-18T07:15:55.902Z,191.25
2018-03-18T07:16:55.825Z,191.25
2018-03-18T07:17:55.794Z,191.25
2018-03-18T07:18:55.981Z,191.25
2018-03-18T07:19:55.736Z,196.88
2018-03-18T07:20:55.732Z,196.88
2018-03-18T07:21:55.650Z,202.50
2018-03-18T07:22:56.492Z,202.50
2018-03-18T07:23:55.714Z,208.13
2018-03-18T07:24:55.534Z,208.13
2018-03-18T07:25:55.500Z,208.13
2018-03-18T07:26:55.521Z,208.13
2018-03-18T07:27:55.448Z,208.13
2018-03-18T07:28:55.395Z,225.00
2018-03-18T07:29:55.365Z,225.00
2018-03-18T07:30:55.379Z,230.63
2018-03-18T07:31:55.296Z,230.63
2018-03-18T07:32:55.261Z,236.25
2018-03-18T07:33:55.577Z,236.25
2018-03-18T07:34:55.178Z,241.88
2018-03-18T07:35:55.154Z,241.88
2018-03-18T07:36:55.157Z,247.50
2018-03-18T07:37:55.086Z,247.50
2018-03-18T07:38:55.993Z,253.13
2018-03-18T07:39:55.021Z,253.13
2018-03-18T07:40:54.973Z,258.75
2018-03-18T07:41:54.990Z,264.38
2018-03-18T07:42:54.909Z,270.00
2018-03-18T07:43:54.872Z,275.63
2018-03-18T07:44:54.837Z,281.25
2018-03-18T07:45:54.800Z,286.88
2018-03-18T07:46:54.814Z,292.50
2018-03-18T07:47:55.494Z,298.13
2018-03-18T07:48:54.703Z,303.75
2018-03-18T07:49:54.668Z,309.38
2018-03-18T07:50:54.630Z,315.00
2018-03-18T07:51:54.659Z,320.63
2018-03-18T07:52:54.590Z,326.25
2018-03-18T07:53:55.497Z,326.25
2018-03-18T07:54:54.500Z,331.88
2018-03-18T07:55:54.460Z,365.63
2018-03-18T07:56:54.500Z,388.13
2018-03-18T07:57:54.398Z,641.25
2018-03-18T07:58:54.366Z,1220.63
2018-03-18T07:59:54.328Z,1350.00
2018-03-18T08:00:54.297Z,1501.88
2018-03-18T08:01:54.389Z,1653.75
2018-03-18T08:02:54.232Z,1749.38
2018-03-18T08:03:54.200Z,1783.13
2018-03-18T08:04:54.209Z,1766.25
2018-03-18T08:05:54.133Z,1856.25
2018-03-18T08:06:54.107Z,1856.25
2018-03-18T08:07:54.070Z,1777.50
2018-03-18T08:08:54.052Z,1828.13
2018-03-18T08:09:54.048Z,1845.00
2018-03-18T08:10:53.984Z,1923.75
2018-03-18T08:11:53.942Z,1963.13
2018-03-18T08:12:53.935Z,1878.75
2018-03-18T08:13:53.879Z,1985.63
2018-03-18T08:14:53.919Z,2098.13
2018-03-18T08:15:53.921Z,2171.25
2018-03-18T08:16:53.792Z,2115.00
2018-03-18T08:17:54.498Z,2047.50
2018-03-18T08:18:53.738Z,2047.50
2018-03-18T08:19:53.973Z,2075.63
2018-03-18T08:20:54.152Z,2115.00
2018-03-18T08:21:53.763Z,2193.75
2018-03-18T08:22:53.859Z,2188.13
2018-03-18T08:23:53.830Z,2210.63
2018-03-18T08:24:53.830Z,2188.13
2018-03-18T08:25:54.029Z,2075.63
2018-03-18T08:26:53.763Z,2092.50
2018-03-18T08:27:53.903Z,2160.00
2018-03-18T08:28:53.534Z,2098.13
2018-03-18T08:29:53.441Z,2205.00
2018-03-18T08:30:53.490Z,2221.88
2018-03-18T08:31:53.387Z,2193.75
2018-03-18T08:32:53.363Z,2188.13
2018-03-18T08:33:53.405Z,2216.25
2018-03-18T08:34:53.307Z,2216.25
2018-03-18T08:35:53.328Z,2098.13
2018-03-18T08:36:53.269Z,2075.63
2018-03-18T08:37:53.225Z,2098.13
2018-03-18T08:38:53.229Z,2182.50
2018-03-18T08:39:53.167Z,2188.13
2018-03-18T08:40:53.138Z,2255.63
2018-03-18T08:41:53.105Z,2351.25
2018-03-18T08:42:53.085Z,2323.13
2018-03-18T08:43:53.075Z,2188.13
2018-03-18T08:44:53.008Z,2098.13
2018-03-18T08:45:53.038Z,2148.75
2018-03-18T08:46:52.954Z,2255.63
2018-03-18T08:47:53.503Z,2334.38
2018-03-18T08:48:52.907Z,2497.50
2018-03-18T08:49:52.892Z,2396.25
2018-03-18T08:50:52.928Z,2390.63
2018-03-18T08:51:53.101Z,2508.75
2018-03-18T08:52:53.108Z,2531.25
2018-03-18T08:53:52.930Z,2486.25
2018-03-18T08:54:52.950Z,2598.75
2018-03-18T08:55:53.479Z,2671.88
2018-03-18T08:56:53.153Z,2570.63
2018-03-18T08:57:53.083Z,2553.75
2018-03-18T08:58:52.848Z,2559.38
2018-03-18T08:59:52.898Z,2452.50
2018-03-18T09:00:52.815Z,2311.88
2018-03-18T09:01:53.082Z,2227.50
2018-03-18T09:02:52.709Z,2261.25
2018-03-18T09:03:52.542Z,2390.63
2018-03-18T09:04:52.512Z,2323.13
2018-03-18T09:05:52.489Z,2233.13
2018-03-18T09:06:52.527Z,2300.63
2018-03-18T09:07:53.010Z,2396.25
2018-03-18T09:08:52.472Z,2266.88
2018-03-18T09:09:52.395Z,2255.63
2018-03-18T09:10:52.360Z,2328.75
2018-03-18T09:11:52.335Z,2272.50
2018-03-18T09:12:52.386Z,2109.38
2018-03-18T09:13:53.005Z,2171.25
2018-03-18T09:14:52.275Z,2250.00
2018-03-18T09:15:52.354Z,2255.63
2018-03-18T09:16:52.286Z,2323.13
2018-03-18T09:17:52.238Z,2289.38
2018-03-18T09:18:52.168Z,2238.75
2018-03-18T09:19:52.190Z,2396.25
2018-03-18T09:20:52.119Z,2446.88
2018-03-18T09:21:52.099Z,2413.13
2018-03-18T09:22:52.072Z,2475.00
2018-03-18T09:23:52.090Z,2497.50
2018-03-18T09:24:52.018Z,2520.00
2018-03-18T09:25:52.062Z,2430.00
2018-03-18T09:26:52.000Z,2396.25
2018-03-18T09:27:51.969Z,2508.75
2018-03-18T09:28:51.926Z,2587.50
2018-03-18T09:29:51.904Z,2632.50
2018-03-18T09:30:51.970Z,2598.75
2018-03-18T09:31:51.907Z,2520.00
2018-03-18T09:32:51.846Z,2643.75
2018-03-18T09:33:51.860Z,2671.88
2018-03-18T09:34:51.816Z,2475.00
2018-03-18T09:35:51.767Z,2570.63
2018-03-18T09:36:51.740Z,2733.75
2018-03-18T09:37:51.762Z,2458.13
2018-03-18T09:38:51.700Z,2340.00
2018-03-18T09:39:51.675Z,2503.13
2018-03-18T09:40:51.710Z,2244.38
2018-03-18T09:41:51.644Z,2092.50
2018-03-18T09:42:51.694Z,2328.75
2018-03-18T09:43:51.586Z,2598.75
2018-03-18T09:44:51.580Z,2896.88
2018-03-18T09:45:51.580Z,2953.13
2018-03-18T09:46:51.541Z,2964.38
2018-03-18T09:47:51.593Z,2947.50
2018-03-18T09:48:51.476Z,2981.25
2018-03-18T09:49:51.498Z,2958.75
2018-03-18T09:50:51.430Z,2880.00
2018-03-18T09:51:51.411Z,2840.63
2018-03-18T09:52:51.393Z,2936.25
2018-03-18T09:53:51.370Z,2964.38
2018-03-18T09:54:51.456Z,2863.13
2018-03-18T09:55:51.319Z,2998.13
2018-03-18T09:56:51.323Z,2936.25
2018-03-18T09:57:51.485Z,2835.00
2018-03-18T09:58:51.256Z,2671.88
2018-03-18T09:59:51.253Z,2857.50
2018-03-18T10:00:51.220Z,2970.00
2018-03-18T10:01:51.196Z,2520.00
2018-03-18T10:02:51.231Z,2340.00
2018-03-18T10:03:51.192Z,2576.25
2018-03-18T10:04:51.145Z,2683.13
2018-03-18T10:05:51.116Z,2660.63
2018-03-18T10:06:51.119Z,2610.00
2018-03-18T10:07:51.116Z,2761.88
2018-03-18T10:08:51.117Z,2846.25
2018-03-18T10:09:51.044Z,2722.50
2018-03-18T10:10:51.096Z,2818.13
2018-03-18T10:11:51.001Z,2919.38
2018-03-18T10:12:50.989Z,2958.75
2018-03-18T10:13:51.019Z,2829.38
2018-03-18T10:14:50.950Z,3076.88
2018-03-18T10:15:50.942Z,3183.75
2018-03-18T10:16:50.914Z,3138.75
2018-03-18T10:17:50.908Z,3105.00
2018-03-18T10:18:50.920Z,3026.25
2018-03-18T10:19:50.846Z,2986.88
2018-03-18T10:20:50.837Z,2885.63
2018-03-18T10:21:50.811Z,2767.50
2018-03-18T10:22:50.833Z,2953.13
2018-03-18T10:23:50.773Z,3015.00
2018-03-18T10:24:50.802Z,3009.38
2018-03-18T10:25:50.732Z,3037.50
2018-03-18T10:26:50.728Z,2975.63
2018-03-18T10:27:50.699Z,3099.38
2018-03-18T10:28:50.763Z,3099.38
2018-03-18T10:29:50.662Z,3026.25
2018-03-18T10:30:51.527Z,3211.88
2018-03-18T10:31:50.646Z,3240.00
2018-03-18T10:32:50.655Z,3155.63
2018-03-18T10:33:50.590Z,3071.25
2018-03-18T10:34:50.576Z,3082.50
2018-03-18T10:35:50.595Z,3043.13
2018-03-18T10:36:50.542Z,2896.88
2018-03-18T10:37:50.523Z,2930.63
2018-03-18T10:38:50.498Z,2936.25
2018-03-18T10:39:50.529Z,2970.00
2018-03-18T10:40:50.475Z,2863.13
2018-03-18T10:41:50.509Z,2913.75
2018-03-18T10:42:50.427Z,2998.13
2018-03-18T10:43:50.406Z,2986.88
2018-03-18T10:44:50.443Z,2835.00
2018-03-18T10:45:50.406Z,2851.88
2018-03-18T10:46:50.408Z,2857.50
2018-03-18T10:47:50.337Z,2829.38
2018-03-18T10:48:50.369Z,3026.25
2018-03-18T10:49:50.311Z,3003.75
2018-03-18T10:50:50.285Z,2992.50
2018-03-18T10:51:50.664Z,3060.00
2018-03-18T10:52:50.602Z,3088.13
2018-03-18T10:53:50.498Z,3172.50
2018-03-18T10:54:50.522Z,3121.88
2018-03-18T10:55:50.468Z,3054.38
2018-03-18T10:56:50.621Z,3082.50
2018-03-18T10:57:51.323Z,3172.50
2018-03-18T10:58:50.414Z,3206.25
2018-03-18T10:59:50.384Z,3211.88
2018-03-18T11:00:50.391Z,3240.00
2018-03-18T11:01:50.545Z,3318.75
2018-03-18T11:02:50.250Z,3256.88
2018-03-18T11:03:50.067Z,3217.50
2018-03-18T11:04:50.040Z,3116.25
2018-03-18T11:05:50.062Z,3138.75
2018-03-18T11:06:50.006Z,3110.63
2018-03-18T11:07:49.993Z,2981.25
2018-03-18T11:08:50.040Z,2992.50
2018-03-18T11:09:49.998Z,3121.88
2018-03-18T11:10:49.939Z,3150.00
2018-03-18T11:11:49.921Z,3065.63
2018-03-18T11:12:49.908Z,3138.75
2018-03-18T11:13:49.946Z,3240.00
2018-03-18T11:14:49.863Z,3290.63
2018-03-18T11:15:49.849Z,3285.00
2018-03-18T11:16:49.828Z,3240.00
2018-03-18T11:17:49.815Z,3110.63
2018-03-18T11:18:49.838Z,3178.13
2018-03-18T11:19:49.801Z,3375.00
2018-03-18T11:20:49.840Z,3476.25
2018-03-18T11:21:49.742Z,3504.38
2018-03-18T11:22:49.728Z,3459.38
2018-03-18T11:23:49.773Z,3358.13
2018-03-18T11:24:49.773Z,3386.25
2018-03-18T11:25:49.727Z,3358.13
2018-03-18T11:26:49.709Z,3380.63
2018-03-18T11:27:49.646Z,3465.00
2018-03-18T11:28:49.632Z,3566.25
2018-03-18T11:29:49.614Z,3414.38
2018-03-18T11:30:49.665Z,3335.63
2018-03-18T11:31:49.588Z,3375.00
2018-03-18T11:32:49.566Z,3431.25
2018-03-18T11:33:49.571Z,3448.13
2018-03-18T11:34:49.551Z,3358.13
2018-03-18T11:35:49.559Z,2970.00
2018-03-18T11:36:49.503Z,3003.75
2018-03-18T11:37:49.636Z,3358.13
2018-03-18T11:38:49.752Z,3493.13
2018-03-18T11:39:49.946Z,3386.25
2018-03-18T11:40:49.621Z,3386.25
2018-03-18T11:41:49.706Z,3420.00
2018-03-18T11:42:49.739Z,3414.38
2018-03-18T11:43:49.592Z,3318.75
2018-03-18T11:44:49.599Z,3285.00
2018-03-18T11:45:49.642Z,3301.88
2018-03-18T11:46:49.783Z,3285.00
2018-03-18T11:47:49.593Z,3240.00
2018-03-18T11:48:49.414Z,3273.75
2018-03-18T11:49:49.350Z,3296.25
2018-03-18T11:50:49.295Z,3195.00
2018-03-18T11:51:49.280Z,3341.25
2018-03-18T11:52:49.266Z,3465.00
2018-03-18T11:53:49.324Z,3341.25
2018-03-18T11:54:49.234Z,3386.25
2018-03-18T11:55:49.318Z,3386.25
2018-03-18T11:56:49.254Z,3285.00
2018-03-18T11:57:49.202Z,3318.75
2018-03-18T11:58:49.176Z,3386.25
2018-03-18T11:59:49.216Z,3504.38
2018-03-18T12:00:49.150Z,3470.63
2018-03-18T12:01:50.071Z,3313.13
2018-03-18T12:02:49.180Z,3335.63
2018-03-18T12:03:49.105Z,3346.88
2018-03-18T12:04:49.090Z,3369.38
2018-03-18T12:05:49.081Z,3279.38
2018-03-18T12:06:49.071Z,3262.50
2018-03-18T12:07:49.095Z,3155.63
2018-03-18T12:08:49.078Z,3093.75
2018-03-18T12:09:49.048Z,3105.00
2018-03-18T12:10:49.009Z,3133.13
2018-03-18T12:11:49.062Z,3256.88
2018-03-18T12:12:48.978Z,3223.13
2018-03-18T12:13:48.961Z,3206.25
2018-03-18T12:14:48.944Z,3262.50
2018-03-18T12:15:48.934Z,3420.00
2018-03-18T12:16:48.960Z,3465.00
2018-03-18T12:17:48.941Z,3301.88
2018-03-18T12:18:48.890Z,3234.38
2018-03-18T12:19:48.871Z,3318.75
2018-03-18T12:20:48.857Z,3335.63
2018-03-18T12:21:48.841Z,3245.63
2018-03-18T12:22:48.873Z,3211.88
2018-03-18T12:23:48.816Z,3178.13
2018-03-18T12:24:48.809Z,3161.25
2018-03-18T12:25:48.807Z,3211.88
2018-03-18T12:26:48.842Z,3105.00
2018-03-18T12:27:48.762Z,3110.63
2018-03-18T12:28:48.793Z,2986.88
2018-03-18T12:29:48.756Z,2925.00
2018-03-18T12:30:48.717Z,3088.13
2018-03-18T12:31:48.765Z,3076.88
2018-03-18T12:32:48.699Z,3127.50
2018-03-18T12:33:48.738Z,3121.88
2018-03-18T12:34:48.671Z,3065.63
2018-03-18T12:35:48.655Z,3088.13
2018-03-18T12:36:48.695Z,3060.00
2018-03-18T12:37:48.630Z,2919.38
2018-03-18T12:38:48.656Z,2885.63
2018-03-18T12:39:48.601Z,2970.00
2018-03-18T12:40:48.589Z,2981.25